sensor_id;sensor_type;location;lat;lon;timestamp;P1;durP1;ratioP1;P2;durP2;ratioP2
35558;SDS011;21661;50.794;-1.066;2023-01-19T00:01:18;9.63;;;4.80;;
35558;SDS011;21661;50.794;-1.066;2023-01-19T00:03:44;11.43;;;5.00;;
35558;SDS011;21661;50.794;-1.066;2023-01-19T00:06:10;16.73;;;5.90;;
35558;SDS011;21661;50.794;-1.066;2023-01-19T00:08:36;13.10;;;4.80;;
35558;SDS011;21661;50.794;-1.066;2023-01-19T00:11:02;17.48;;;6.30;;
35558;SDS011;21661;50.794;-1.066;2023-01-19T00:13:28;11.55;;;5.95;;
35558;SDS011;21661;50.794;-1.066;2023-01-19T00:15:53;15.95;;;5.50;;
35558;SDS011;21661;50.794;-1.066;2023-01-19T00:18:19;16.35;;;5.53;;
35558;SDS011;21661;50.794;-1.066;2023-01-19T00:20:45;12.45;;;5.18;;
35558;SDS011;21661;50.794;-1.066;2023-01-19T00:23:11;11.43;;;5.50;;
35558;SDS011;21661;50.794;-1.066;2023-01-19T00:25:37;12.38;;;4.80;;
35558;SDS011;21661;50.794;-1.066;2023-01-19T00:28:10;14.15;;;4.57;;
35558;SDS011;21661;50.794;-1.066;2023-01-19T00:30:37;11.65;;;4.25;;
35558;SDS011;21661;50.794;-1.066;2023-01-19T00:33:03;12.40;;;4.50;;
35558;SDS011;21661;50.794;-1.066;2023-01-19T00:35:29;12.48;;;4.97;;
35558;SDS011;21661;50.794;-1.066;2023-01-19T00:37:56;12.13;;;5.57;;
35558;SDS011;21661;50.794;-1.066;2023-01-19T00:40:23;12.25;;;5.05;;
35558;SDS011;21661;50.794;-1.066;2023-01-19T00:42:48;12.23;;;5.05;;
35558;SDS011;21661;50.794;-1.066;2023-01-19T00:47:42;12.65;;;4.70;;
35558;SDS011;21661;50.794;-1.066;2023-01-19T00:50:09;13.23;;;4.90;;
35558;SDS011;21661;50.794;-1.066;2023-01-19T00:52:36;12.70;;;4.72;;
35558;SDS011;21661;50.794;-1.066;2023-01-19T00:55:06;10.90;;;4.75;;
35558;SDS011;21661;50.794;-1.066;2023-01-19T00:57:32;13.85;;;5.68;;
35558;SDS011;21661;50.794;-1.066;2023-01-19T00:59:58;11.55;;;5.07;;
35558;SDS011;21661;50.794;-1.066;2023-01-19T01:02:23;12.77;;;5.13;;
35558;SDS011;21661;50.794;-1.066;2023-01-19T01:04:49;10.95;;;5.43;;
35558;SDS011;21661;50.794;-1.066;2023-01-19T01:09:46;13.30;;;5.15;;
35558;SDS011;21661;50.794;-1.066;2023-01-19T01:12:12;11.10;;;4.78;;
35558;SDS011;21661;50.794;-1.066;2023-01-19T01:14:37;13.70;;;4.60;;
35558;SDS011;21661;50.794;-1.066;2023-01-19T01:17:03;11.55;;;4.72;;
35558;SDS011;21661;50.794;-1.066;2023-01-19T01:19:28;12.02;;;4.53;;
35558;SDS011;21661;50.794;-1.066;2023-01-19T01:21:54;13.70;;;4.97;;
35558;SDS011;21661;50.794;-1.066;2023-01-19T01:24:20;12.80;;;5.10;;
35558;SDS011;21661;50.794;-1.066;2023-01-19T01:26:46;12.63;;;4.93;;
35558;SDS011;21661;50.794;-1.066;2023-01-19T01:29:12;10.15;;;4.15;;
35558;SDS011;21661;50.794;-1.066;2023-01-19T01:31:37;16.45;;;4.88;;
35558;SDS011;21661;50.794;-1.066;2023-01-19T01:34:03;8.60;;;4.40;;
35558;SDS011;21661;50.794;-1.066;2023-01-19T01:36:28;12.48;;;4.88;;
35558;SDS011;21661;50.794;-1.066;2023-01-19T01:38:57;16.65;;;4.90;;
35558;SDS011;21661;50.794;-1.066;2023-01-19T01:41:23;11.70;;;4.60;;
35558;SDS011;21661;50.794;-1.066;2023-01-19T01:43:51;17.75;;;5.45;;
35558;SDS011;21661;50.794;-1.066;2023-01-19T01:46:20;11.00;;;4.65;;
35558;SDS011;21661;50.794;-1.066;2023-01-19T01:49:05;10.57;;;4.95;;
35558;SDS011;21661;50.794;-1.066;2023-01-19T01:51:47;11.27;;;4.90;;
35558;SDS011;21661;50.794;-1.066;2023-01-19T01:54:20;10.68;;;4.78;;
35558;SDS011;21661;50.794;-1.066;2023-01-19T01:56:51;9.65;;;4.32;;
35558;SDS011;21661;50.794;-1.066;2023-01-19T01:59:22;13.35;;;4.05;;
35558;SDS011;21661;50.794;-1.066;2023-01-19T02:01:52;9.77;;;4.25;;
35558;SDS011;21661;50.794;-1.066;2023-01-19T02:04:43;10.27;;;4.50;;
35558;SDS011;21661;50.794;-1.066;2023-01-19T02:07:15;11.20;;;4.50;;
35558;SDS011;21661;50.794;-1.066;2023-01-19T02:10:03;14.02;;;4.90;;
35558;SDS011;21661;50.794;-1.066;2023-01-19T02:12:48;14.43;;;4.72;;
35558;SDS011;21661;50.794;-1.066;2023-01-19T02:15:32;25.45;;;7.28;;
35558;SDS011;21661;50.794;-1.066;2023-01-19T02:17:57;11.38;;;4.30;;
35558;SDS011;21661;50.794;-1.066;2023-01-19T02:20:24;14.35;;;4.13;;
35558;SDS011;21661;50.794;-1.066;2023-01-19T02:22:52;10.73;;;3.95;;
35558;SDS011;21661;50.794;-1.066;2023-01-19T02:25:20;8.05;;;4.28;;
35558;SDS011;21661;50.794;-1.066;2023-01-19T02:27:47;9.73;;;4.00;;
35558;SDS011;21661;50.794;-1.066;2023-01-19T02:30:15;10.35;;;4.10;;
35558;SDS011;21661;50.794;-1.066;2023-01-19T02:32:42;8.32;;;3.97;;
35558;SDS011;21661;50.794;-1.066;2023-01-19T02:35:09;9.95;;;3.35;;
35558;SDS011;21661;50.794;-1.066;2023-01-19T02:37:35;9.77;;;4.03;;
35558;SDS011;21661;50.794;-1.066;2023-01-19T02:40:04;8.00;;;3.63;;
35558;SDS011;21661;50.794;-1.066;2023-01-19T02:42:37;11.30;;;3.97;;
35558;SDS011;21661;50.794;-1.066;2023-01-19T02:45:12;11.15;;;3.70;;
35558;SDS011;21661;50.794;-1.066;2023-01-19T02:47:42;11.48;;;4.95;;
35558;SDS011;21661;50.794;-1.066;2023-01-19T02:56:19;11.82;;;4.05;;
35558;SDS011;21661;50.794;-1.066;2023-01-19T03:07:10;10.40;;;4.05;;
35558;SDS011;21661;50.794;-1.066;2023-01-19T03:12:39;11.18;;;4.38;;
35558;SDS011;21661;50.794;-1.066;2023-01-19T03:15:21;12.77;;;4.13;;
35558;SDS011;21661;50.794;-1.066;2023-01-19T03:17:52;9.00;;;4.57;;
35558;SDS011;21661;50.794;-1.066;2023-01-19T03:20:21;9.60;;;4.38;;
35558;SDS011;21661;50.794;-1.066;2023-01-19T03:22:50;10.38;;;4.47;;
35558;SDS011;21661;50.794;-1.066;2023-01-19T03:25:32;8.55;;;4.07;;
35558;SDS011;21661;50.794;-1.066;2023-01-19T03:28:01;11.30;;;4.25;;
35558;SDS011;21661;50.794;-1.066;2023-01-19T03:30:29;10.13;;;4.00;;
35558;SDS011;21661;50.794;-1.066;2023-01-19T03:32:59;10.82;;;4.35;;
35558;SDS011;21661;50.794;-1.066;2023-01-19T03:35:31;9.85;;;4.32;;
35558;SDS011;21661;50.794;-1.066;2023-01-19T03:38:01;8.68;;;4.55;;
35558;SDS011;21661;50.794;-1.066;2023-01-19T03:40:32;10.02;;;4.57;;
35558;SDS011;21661;50.794;-1.066;2023-01-19T03:43:00;12.43;;;4.53;;
35558;SDS011;21661;50.794;-1.066;2023-01-19T03:45:28;9.63;;;4.30;;
35558;SDS011;21661;50.794;-1.066;2023-01-19T03:47:56;11.02;;;4.50;;
35558;SDS011;21661;50.794;-1.066;2023-01-19T03:50:24;12.05;;;4.20;;
35558;SDS011;21661;50.794;-1.066;2023-01-19T03:52:59;10.05;;;4.68;;
35558;SDS011;21661;50.794;-1.066;2023-01-19T03:55:26;9.65;;;5.50;;
35558;SDS011;21661;50.794;-1.066;2023-01-19T03:57:51;11.27;;;4.40;;
35558;SDS011;21661;50.794;-1.066;2023-01-19T04:00:17;10.07;;;4.53;;
35558;SDS011;21661;50.794;-1.066;2023-01-19T04:02:43;10.85;;;3.90;;
35558;SDS011;21661;50.794;-1.066;2023-01-19T04:05:10;10.63;;;4.60;;
35558;SDS011;21661;50.794;-1.066;2023-01-19T04:07:35;11.48;;;4.32;;
35558;SDS011;21661;50.794;-1.066;2023-01-19T04:10:01;11.30;;;4.53;;
35558;SDS011;21661;50.794;-1.066;2023-01-19T04:12:26;9.93;;;3.88;;
35558;SDS011;21661;50.794;-1.066;2023-01-19T04:14:52;8.73;;;4.80;;
35558;SDS011;21661;50.794;-1.066;2023-01-19T04:17:18;16.35;;;5.15;;
35558;SDS011;21661;50.794;-1.066;2023-01-19T04:19:43;10.40;;;4.85;;
35558;SDS011;21661;50.794;-1.066;2023-01-19T04:22:09;9.48;;;5.22;;
35558;SDS011;21661;50.794;-1.066;2023-01-19T04:24:34;10.95;;;4.43;;
35558;SDS011;21661;50.794;-1.066;2023-01-19T04:27:00;11.77;;;4.85;;
35558;SDS011;21661;50.794;-1.066;2023-01-19T04:29:26;12.30;;;4.63;;
35558;SDS011;21661;50.794;-1.066;2023-01-19T04:31:51;8.90;;;4.78;;
35558;SDS011;21661;50.794;-1.066;2023-01-19T04:34:17;9.60;;;4.10;;
35558;SDS011;21661;50.794;-1.066;2023-01-19T04:36:42;15.82;;;5.18;;
35558;SDS011;21661;50.794;-1.066;2023-01-19T04:39:09;9.05;;;4.65;;
35558;SDS011;21661;50.794;-1.066;2023-01-19T04:41:35;10.23;;;4.65;;
35558;SDS011;21661;50.794;-1.066;2023-01-19T04:44:01;10.77;;;5.43;;
35558;SDS011;21661;50.794;-1.066;2023-01-19T04:46:27;8.57;;;4.65;;
35558;SDS011;21661;50.794;-1.066;2023-01-19T04:48:53;7.43;;;4.88;;
35558;SDS011;21661;50.794;-1.066;2023-01-19T04:51:18;11.77;;;4.82;;
35558;SDS011;21661;50.794;-1.066;2023-01-19T04:53:44;9.15;;;5.55;;
35558;SDS011;21661;50.794;-1.066;2023-01-19T04:56:09;10.90;;;4.25;;
35558;SDS011;21661;50.794;-1.066;2023-01-19T04:58:36;12.10;;;4.60;;
35558;SDS011;21661;50.794;-1.066;2023-01-19T05:01:05;10.35;;;5.00;;
35558;SDS011;21661;50.794;-1.066;2023-01-19T05:03:32;11.90;;;5.03;;
35558;SDS011;21661;50.794;-1.066;2023-01-19T05:05:58;12.70;;;5.45;;
35558;SDS011;21661;50.794;-1.066;2023-01-19T05:08:23;12.15;;;5.13;;
35558;SDS011;21661;50.794;-1.066;2023-01-19T05:10:49;12.98;;;5.03;;
35558;SDS011;21661;50.794;-1.066;2023-01-19T05:13:15;10.55;;;5.28;;
35558;SDS011;21661;50.794;-1.066;2023-01-19T05:15:40;7.95;;;4.95;;
35558;SDS011;21661;50.794;-1.066;2023-01-19T05:18:06;12.10;;;5.60;;
35558;SDS011;21661;50.794;-1.066;2023-01-19T05:20:31;10.30;;;5.78;;
35558;SDS011;21661;50.794;-1.066;2023-01-19T05:22:57;11.60;;;6.55;;
35558;SDS011;21661;50.794;-1.066;2023-01-19T05:25:22;13.20;;;6.22;;
35558;SDS011;21661;50.794;-1.066;2023-01-19T05:27:48;9.27;;;5.05;;
35558;SDS011;21661;50.794;-1.066;2023-01-19T05:30:14;11.98;;;5.07;;
35558;SDS011;21661;50.794;-1.066;2023-01-19T05:32:40;9.73;;;5.25;;
35558;SDS011;21661;50.794;-1.066;2023-01-19T05:35:06;10.77;;;5.55;;
35558;SDS011;21661;50.794;-1.066;2023-01-19T05:37:32;10.60;;;5.65;;
35558;SDS011;21661;50.794;-1.066;2023-01-19T05:39:57;8.77;;;5.55;;
35558;SDS011;21661;50.794;-1.066;2023-01-19T05:42:23;11.32;;;6.43;;
35558;SDS011;21661;50.794;-1.066;2023-01-19T05:44:49;12.05;;;6.18;;
35558;SDS011;21661;50.794;-1.066;2023-01-19T05:47:14;10.43;;;5.90;;
35558;SDS011;21661;50.794;-1.066;2023-01-19T05:49:40;13.52;;;6.07;;
35558;SDS011;21661;50.794;-1.066;2023-01-19T05:52:05;10.45;;;6.00;;
35558;SDS011;21661;50.794;-1.066;2023-01-19T05:54:31;10.88;;;5.68;;
35558;SDS011;21661;50.794;-1.066;2023-01-19T05:56:57;15.15;;;6.70;;
35558;SDS011;21661;50.794;-1.066;2023-01-19T05:59:22;11.88;;;5.72;;
35558;SDS011;21661;50.794;-1.066;2023-01-19T06:01:51;10.55;;;5.30;;
35558;SDS011;21661;50.794;-1.066;2023-01-19T06:04:18;12.95;;;5.93;;
35558;SDS011;21661;50.794;-1.066;2023-01-19T06:06:45;13.40;;;6.18;;
35558;SDS011;21661;50.794;-1.066;2023-01-19T06:09:12;11.68;;;5.80;;
35558;SDS011;21661;50.794;-1.066;2023-01-19T06:11:37;12.32;;;6.50;;
35558;SDS011;21661;50.794;-1.066;2023-01-19T06:14:03;12.45;;;5.88;;
35558;SDS011;21661;50.794;-1.066;2023-01-19T06:16:29;12.32;;;6.10;;
35558;SDS011;21661;50.794;-1.066;2023-01-19T06:18:55;12.65;;;6.57;;
35558;SDS011;21661;50.794;-1.066;2023-01-19T06:21:20;14.15;;;6.47;;
35558;SDS011;21661;50.794;-1.066;2023-01-19T06:23:46;12.68;;;6.70;;
35558;SDS011;21661;50.794;-1.066;2023-01-19T06:26:11;13.40;;;7.50;;
35558;SDS011;21661;50.794;-1.066;2023-01-19T06:28:37;12.15;;;6.43;;
35558;SDS011;21661;50.794;-1.066;2023-01-19T06:31:03;13.52;;;6.70;;
35558;SDS011;21661;50.794;-1.066;2023-01-19T06:33:29;15.32;;;6.70;;
35558;SDS011;21661;50.794;-1.066;2023-01-19T06:35:55;13.02;;;6.65;;
35558;SDS011;21661;50.794;-1.066;2023-01-19T06:38:21;13.93;;;7.15;;
35558;SDS011;21661;50.794;-1.066;2023-01-19T06:40:53;10.85;;;6.07;;
35558;SDS011;21661;50.794;-1.066;2023-01-19T06:43:22;12.40;;;6.32;;
35558;SDS011;21661;50.794;-1.066;2023-01-19T06:45:48;12.15;;;6.97;;
35558;SDS011;21661;50.794;-1.066;2023-01-19T06:48:15;16.70;;;7.07;;
35558;SDS011;21661;50.794;-1.066;2023-01-19T06:50:40;13.68;;;6.82;;
35558;SDS011;21661;50.794;-1.066;2023-01-19T06:53:09;19.02;;;6.85;;
35558;SDS011;21661;50.794;-1.066;2023-01-19T06:55:34;14.23;;;7.32;;
35558;SDS011;21661;50.794;-1.066;2023-01-19T06:58:00;11.88;;;6.70;;
35558;SDS011;21661;50.794;-1.066;2023-01-19T07:00:27;16.08;;;6.97;;
35558;SDS011;21661;50.794;-1.066;2023-01-19T07:02:53;14.57;;;7.30;;
35558;SDS011;21661;50.794;-1.066;2023-01-19T07:05:18;14.02;;;7.57;;
35558;SDS011;21661;50.794;-1.066;2023-01-19T07:07:49;13.88;;;8.02;;
35558;SDS011;21661;50.794;-1.066;2023-01-19T07:10:19;14.27;;;7.13;;
35558;SDS011;21661;50.794;-1.066;2023-01-19T07:12:45;11.23;;;6.88;;
35558;SDS011;21661;50.794;-1.066;2023-01-19T07:15:11;12.60;;;6.45;;
35558;SDS011;21661;50.794;-1.066;2023-01-19T07:17:40;14.68;;;6.85;;
35558;SDS011;21661;50.794;-1.066;2023-01-19T07:20:09;11.02;;;6.15;;
35558;SDS011;21661;50.794;-1.066;2023-01-19T07:22:39;13.35;;;6.50;;
35558;SDS011;21661;50.794;-1.066;2023-01-19T07:25:06;11.35;;;5.82;;
35558;SDS011;21661;50.794;-1.066;2023-01-19T07:27:31;14.95;;;7.18;;
35558;SDS011;21661;50.794;-1.066;2023-01-19T07:29:57;11.23;;;6.22;;
35558;SDS011;21661;50.794;-1.066;2023-01-19T07:32:25;12.82;;;7.25;;
35558;SDS011;21661;50.794;-1.066;2023-01-19T07:34:51;14.82;;;6.63;;
35558;SDS011;21661;50.794;-1.066;2023-01-19T07:37:16;13.65;;;6.82;;
35558;SDS011;21661;50.794;-1.066;2023-01-19T07:39:42;12.20;;;6.90;;
35558;SDS011;21661;50.794;-1.066;2023-01-19T07:42:08;13.13;;;6.38;;
35558;SDS011;21661;50.794;-1.066;2023-01-19T07:44:33;13.35;;;6.68;;
35558;SDS011;21661;50.794;-1.066;2023-01-19T07:46:59;13.57;;;6.82;;
35558;SDS011;21661;50.794;-1.066;2023-01-19T07:49:24;13.23;;;7.00;;
35558;SDS011;21661;50.794;-1.066;2023-01-19T07:51:50;12.07;;;7.07;;
35558;SDS011;21661;50.794;-1.066;2023-01-19T07:54:16;15.50;;;6.82;;
35558;SDS011;21661;50.794;-1.066;2023-01-19T07:56:41;16.45;;;7.00;;
35558;SDS011;21661;50.794;-1.066;2023-01-19T07:59:08;13.18;;;6.97;;
35558;SDS011;21661;50.794;-1.066;2023-01-19T08:01:34;16.48;;;7.30;;
35558;SDS011;21661;50.794;-1.066;2023-01-19T08:03:59;15.05;;;6.95;;
35558;SDS011;21661;50.794;-1.066;2023-01-19T08:06:26;14.45;;;7.20;;
35558;SDS011;21661;50.794;-1.066;2023-01-19T08:08:57;16.70;;;7.22;;
35558;SDS011;21661;50.794;-1.066;2023-01-19T08:11:22;16.10;;;7.30;;
35558;SDS011;21661;50.794;-1.066;2023-01-19T08:13:48;12.40;;;6.47;;
35558;SDS011;21661;50.794;-1.066;2023-01-19T08:16:14;13.02;;;6.97;;
35558;SDS011;21661;50.794;-1.066;2023-01-19T08:18:39;14.02;;;7.55;;
35558;SDS011;21661;50.794;-1.066;2023-01-19T08:21:05;13.23;;;7.75;;
35558;SDS011;21661;50.794;-1.066;2023-01-19T08:23:31;14.00;;;7.80;;
35558;SDS011;21661;50.794;-1.066;2023-01-19T08:25:56;14.55;;;7.75;;
35558;SDS011;21661;50.794;-1.066;2023-01-19T08:28:22;16.08;;;7.40;;
35558;SDS011;21661;50.794;-1.066;2023-01-19T08:30:47;13.77;;;7.60;;
35558;SDS011;21661;50.794;-1.066;2023-01-19T08:33:23;15.60;;;7.70;;
35558;SDS011;21661;50.794;-1.066;2023-01-19T08:35:50;16.23;;;8.13;;
35558;SDS011;21661;50.794;-1.066;2023-01-19T08:38:17;13.73;;;7.72;;
35558;SDS011;21661;50.794;-1.066;2023-01-19T08:40:43;13.35;;;7.05;;
35558;SDS011;21661;50.794;-1.066;2023-01-19T08:43:10;15.45;;;7.60;;
35558;SDS011;21661;50.794;-1.066;2023-01-19T08:45:38;13.88;;;7.22;;
35558;SDS011;21661;50.794;-1.066;2023-01-19T08:48:10;13.32;;;7.43;;
35558;SDS011;21661;50.794;-1.066;2023-01-19T08:50:37;14.85;;;8.00;;
35558;SDS011;21661;50.794;-1.066;2023-01-19T08:53:04;13.98;;;7.00;;
35558;SDS011;21661;50.794;-1.066;2023-01-19T08:55:32;18.25;;;8.60;;
35558;SDS011;21661;50.794;-1.066;2023-01-19T08:57:58;36.92;;;11.15;;
35558;SDS011;21661;50.794;-1.066;2023-01-19T09:00:25;19.75;;;10.32;;
35558;SDS011;21661;50.794;-1.066;2023-01-19T09:02:51;15.88;;;8.63;;
35558;SDS011;21661;50.794;-1.066;2023-01-19T09:05:18;55.10;;;16.45;;
35558;SDS011;21661;50.794;-1.066;2023-01-19T09:07:44;20.08;;;10.77;;
35558;SDS011;21661;50.794;-1.066;2023-01-19T09:10:12;20.42;;;10.20;;
35558;SDS011;21661;50.794;-1.066;2023-01-19T09:12:39;17.30;;;10.10;;
35558;SDS011;21661;50.794;-1.066;2023-01-19T09:15:05;47.20;;;17.30;;
35558;SDS011;21661;50.794;-1.066;2023-01-19T09:17:31;35.33;;;15.80;;
35558;SDS011;21661;50.794;-1.066;2023-01-19T09:19:56;33.15;;;14.52;;
35558;SDS011;21661;50.794;-1.066;2023-01-19T09:22:22;34.00;;;14.85;;
35558;SDS011;21661;50.794;-1.066;2023-01-19T09:24:48;30.15;;;13.43;;
35558;SDS011;21661;50.794;-1.066;2023-01-19T09:27:14;38.17;;;13.35;;
35558;SDS011;21661;50.794;-1.066;2023-01-19T09:29:39;23.75;;;10.10;;
35558;SDS011;21661;50.794;-1.066;2023-01-19T09:32:05;18.80;;;8.73;;
35558;SDS011;21661;50.794;-1.066;2023-01-19T09:34:30;17.42;;;9.15;;
35558;SDS011;21661;50.794;-1.066;2023-01-19T09:36:56;19.38;;;9.73;;
35558;SDS011;21661;50.794;-1.066;2023-01-19T09:39:22;17.05;;;8.48;;
35558;SDS011;21661;50.794;-1.066;2023-01-19T09:41:48;16.15;;;8.65;;
35558;SDS011;21661;50.794;-1.066;2023-01-19T09:44:27;15.75;;;8.30;;
35558;SDS011;21661;50.794;-1.066;2023-01-19T09:46:53;14.18;;;8.10;;
35558;SDS011;21661;50.794;-1.066;2023-01-19T09:49:20;15.93;;;8.32;;
35558;SDS011;21661;50.794;-1.066;2023-01-19T09:51:55;16.40;;;8.32;;
35558;SDS011;21661;50.794;-1.066;2023-01-19T09:54:23;14.93;;;8.00;;
35558;SDS011;21661;50.794;-1.066;2023-01-19T09:57:13;21.17;;;9.82;;
35558;SDS011;21661;50.794;-1.066;2023-01-19T09:59:39;22.48;;;10.05;;
35558;SDS011;21661;50.794;-1.066;2023-01-19T10:05:04;22.60;;;9.25;;
35558;SDS011;21661;50.794;-1.066;2023-01-19T10:10:25;20.92;;;7.97;;
35558;SDS011;21661;50.794;-1.066;2023-01-19T10:16:10;13.10;;;6.45;;
35558;SDS011;21661;50.794;-1.066;2023-01-19T10:18:47;10.70;;;6.28;;
35558;SDS011;21661;50.794;-1.066;2023-01-19T10:21:22;11.77;;;6.57;;
35558;SDS011;21661;50.794;-1.066;2023-01-19T10:23:56;14.00;;;6.25;;
35558;SDS011;21661;50.794;-1.066;2023-01-19T10:26:31;11.95;;;5.85;;
35558;SDS011;21661;50.794;-1.066;2023-01-19T10:29:05;12.63;;;5.88;;
35558;SDS011;21661;50.794;-1.066;2023-01-19T10:31:52;15.50;;;6.38;;
35558;SDS011;21661;50.794;-1.066;2023-01-19T10:34:28;11.48;;;5.75;;
35558;SDS011;21661;50.794;-1.066;2023-01-19T10:36:55;13.88;;;5.90;;
35558;SDS011;21661;50.794;-1.066;2023-01-19T10:39:28;12.18;;;5.80;;
35558;SDS011;21661;50.794;-1.066;2023-01-19T10:41:53;14.60;;;7.10;;
35558;SDS011;21661;50.794;-1.066;2023-01-19T10:44:23;15.93;;;9.13;;
35558;SDS011;21661;50.794;-1.066;2023-01-19T10:46:51;16.45;;;8.63;;
35558;SDS011;21661;50.794;-1.066;2023-01-19T10:51:50;18.42;;;9.50;;
35558;SDS011;21661;50.794;-1.066;2023-01-19T10:54:16;24.70;;;13.15;;
35558;SDS011;21661;50.794;-1.066;2023-01-19T10:56:44;46.83;;;24.25;;
35558;SDS011;21661;50.794;-1.066;2023-01-19T11:02:20;19.90;;;11.48;;
35558;SDS011;21661;50.794;-1.066;2023-01-19T11:04:51;11.32;;;6.05;;
35558;SDS011;21661;50.794;-1.066;2023-01-19T11:09:49;17.08;;;7.60;;
35558;SDS011;21661;50.794;-1.066;2023-01-19T11:12:58;20.55;;;10.95;;
35558;SDS011;21661;50.794;-1.066;2023-01-19T11:15:28;21.92;;;13.85;;
35558;SDS011;21661;50.794;-1.066;2023-01-19T11:17:56;26.90;;;14.77;;
35558;SDS011;21661;50.794;-1.066;2023-01-19T11:20:23;19.75;;;7.45;;
35558;SDS011;21661;50.794;-1.066;2023-01-19T11:23:02;13.82;;;6.60;;
35558;SDS011;21661;50.794;-1.066;2023-01-19T11:25:44;10.93;;;5.60;;
35558;SDS011;21661;50.794;-1.066;2023-01-19T11:28:18;12.35;;;6.00;;
35558;SDS011;21661;50.794;-1.066;2023-01-19T11:30:53;10.65;;;5.97;;
35558;SDS011;21661;50.794;-1.066;2023-01-19T11:33:23;11.20;;;5.47;;
35558;SDS011;21661;50.794;-1.066;2023-01-19T11:36:57;14.38;;;6.53;;
35558;SDS011;21661;50.794;-1.066;2023-01-19T11:39:21;11.02;;;5.80;;
35558;SDS011;21661;50.794;-1.066;2023-01-19T11:41:48;9.95;;;4.43;;
35558;SDS011;21661;50.794;-1.066;2023-01-19T11:44:28;7.28;;;3.80;;
35558;SDS011;21661;50.794;-1.066;2023-01-19T11:47:15;9.07;;;4.05;;
35558;SDS011;21661;50.794;-1.066;2023-01-19T11:52:58;11.52;;;5.60;;
35558;SDS011;21661;50.794;-1.066;2023-01-19T11:58:16;9.30;;;5.00;;
35558;SDS011;21661;50.794;-1.066;2023-01-19T12:00:44;9.82;;;4.70;;
35558;SDS011;21661;50.794;-1.066;2023-01-19T12:05:45;11.98;;;5.25;;
35558;SDS011;21661;50.794;-1.066;2023-01-19T12:08:24;13.47;;;4.77;;
35558;SDS011;21661;50.794;-1.066;2023-01-19T12:10:54;9.32;;;4.43;;
35558;SDS011;21661;50.794;-1.066;2023-01-19T12:13:23;11.07;;;4.70;;
35558;SDS011;21661;50.794;-1.066;2023-01-19T12:15:58;6.90;;;3.78;;
35558;SDS011;21661;50.794;-1.066;2023-01-19T12:18:47;10.68;;;4.50;;
35558;SDS011;21661;50.794;-1.066;2023-01-19T12:21:34;7.57;;;2.70;;
35558;SDS011;21661;50.794;-1.066;2023-01-19T12:24:21;9.38;;;3.15;;
35558;SDS011;21661;50.794;-1.066;2023-01-19T12:26:56;7.18;;;3.25;;
35558;SDS011;21661;50.794;-1.066;2023-01-19T12:29:28;10.13;;;3.63;;
35558;SDS011;21661;50.794;-1.066;2023-01-19T12:42:59;9.65;;;4.63;;
35558;SDS011;21661;50.794;-1.066;2023-01-19T12:45:30;8.15;;;4.60;;
35558;SDS011;21661;50.794;-1.066;2023-01-19T12:48:03;11.25;;;4.90;;
35558;SDS011;21661;50.794;-1.066;2023-01-19T12:50:34;12.15;;;4.97;;
35558;SDS011;21661;50.794;-1.066;2023-01-19T12:53:05;8.80;;;4.55;;
35558;SDS011;21661;50.794;-1.066;2023-01-19T12:55:42;12.13;;;4.95;;
35558;SDS011;21661;50.794;-1.066;2023-01-19T12:58:15;10.98;;;4.82;;
35558;SDS011;21661;50.794;-1.066;2023-01-19T13:00:43;11.27;;;4.28;;
35558;SDS011;21661;50.794;-1.066;2023-01-19T13:13:33;8.57;;;3.08;;
35558;SDS011;21661;50.794;-1.066;2023-01-19T13:18:46;10.95;;;3.03;;
35558;SDS011;21661;50.794;-1.066;2023-01-19T13:21:30;7.10;;;3.03;;
35558;SDS011;21661;50.794;-1.066;2023-01-19T13:26:39;12.20;;;3.22;;
35558;SDS011;21661;50.794;-1.066;2023-01-19T13:31:58;7.45;;;2.60;;
35558;SDS011;21661;50.794;-1.066;2023-01-19T13:36:59;9.03;;;3.37;;
35558;SDS011;21661;50.794;-1.066;2023-01-19T13:42:12;12.00;;;4.68;;
35558;SDS011;21661;50.794;-1.066;2023-01-19T13:44:41;13.75;;;4.35;;
35558;SDS011;21661;50.794;-1.066;2023-01-19T13:47:17;9.25;;;3.72;;
35558;SDS011;21661;50.794;-1.066;2023-01-19T13:49:49;15.85;;;4.05;;
35558;SDS011;21661;50.794;-1.066;2023-01-19T13:52:21;9.20;;;3.63;;
35558;SDS011;21661;50.794;-1.066;2023-01-19T13:54:52;11.40;;;3.70;;
35558;SDS011;21661;50.794;-1.066;2023-01-19T13:57:26;15.60;;;4.75;;
35558;SDS011;21661;50.794;-1.066;2023-01-19T14:05:13;13.07;;;3.65;;
35558;SDS011;21661;50.794;-1.066;2023-01-19T14:07:39;10.30;;;3.70;;
35558;SDS011;21661;50.794;-1.066;2023-01-19T14:10:05;11.55;;;3.17;;
35558;SDS011;21661;50.794;-1.066;2023-01-19T14:12:38;7.82;;;3.38;;
35558;SDS011;21661;50.794;-1.066;2023-01-19T14:15:05;13.63;;;3.58;;
35558;SDS011;21661;50.794;-1.066;2023-01-19T14:17:37;11.05;;;2.90;;
35558;SDS011;21661;50.794;-1.066;2023-01-19T14:20:04;10.60;;;3.35;;
35558;SDS011;21661;50.794;-1.066;2023-01-19T14:22:41;8.93;;;3.42;;
35558;SDS011;21661;50.794;-1.066;2023-01-19T14:25:25;12.68;;;3.40;;
35558;SDS011;21661;50.794;-1.066;2023-01-19T14:31:15;10.95;;;3.45;;
35558;SDS011;21661;50.794;-1.066;2023-01-19T14:33:47;8.30;;;3.42;;
35558;SDS011;21661;50.794;-1.066;2023-01-19T14:38:49;12.45;;;3.35;;
35558;SDS011;21661;50.794;-1.066;2023-01-19T14:44:17;12.05;;;5.07;;
35558;SDS011;21661;50.794;-1.066;2023-01-19T14:46:54;9.50;;;4.65;;
35558;SDS011;21661;50.794;-1.066;2023-01-19T14:49:45;11.32;;;5.07;;
35558;SDS011;21661;50.794;-1.066;2023-01-19T14:52:20;13.00;;;5.32;;
35558;SDS011;21661;50.794;-1.066;2023-01-19T14:54:56;12.68;;;5.35;;
35558;SDS011;21661;50.794;-1.066;2023-01-19T14:57:23;12.57;;;4.82;;
35558;SDS011;21661;50.794;-1.066;2023-01-19T14:59:48;11.75;;;4.72;;
35558;SDS011;21661;50.794;-1.066;2023-01-19T15:02:14;10.00;;;3.63;;
35558;SDS011;21661;50.794;-1.066;2023-01-19T15:04:43;10.32;;;3.35;;
35558;SDS011;21661;50.794;-1.066;2023-01-19T15:07:16;12.25;;;2.90;;
35558;SDS011;21661;50.794;-1.066;2023-01-19T15:09:43;9.63;;;2.80;;
35558;SDS011;21661;50.794;-1.066;2023-01-19T15:12:10;8.35;;;2.65;;
35558;SDS011;21661;50.794;-1.066;2023-01-19T15:14:38;7.95;;;2.42;;
35558;SDS011;21661;50.794;-1.066;2023-01-19T15:17:04;9.13;;;2.20;;
35558;SDS011;21661;50.794;-1.066;2023-01-19T15:19:30;11.70;;;2.60;;
35558;SDS011;21661;50.794;-1.066;2023-01-19T15:21:55;11.15;;;2.60;;
35558;SDS011;21661;50.794;-1.066;2023-01-19T15:24:21;10.45;;;2.72;;
35558;SDS011;21661;50.794;-1.066;2023-01-19T15:26:47;11.05;;;3.42;;
35558;SDS011;21661;50.794;-1.066;2023-01-19T15:29:20;10.68;;;2.60;;
35558;SDS011;21661;50.794;-1.066;2023-01-19T15:31:48;10.57;;;2.70;;
35558;SDS011;21661;50.794;-1.066;2023-01-19T15:34:14;13.43;;;2.53;;
35558;SDS011;21661;50.794;-1.066;2023-01-19T15:36:40;11.90;;;3.17;;
35558;SDS011;21661;50.794;-1.066;2023-01-19T15:39:06;9.32;;;2.38;;
35558;SDS011;21661;50.794;-1.066;2023-01-19T15:41:32;4.85;;;1.73;;
35558;SDS011;21661;50.794;-1.066;2023-01-19T15:43:58;9.27;;;3.35;;
35558;SDS011;21661;50.794;-1.066;2023-01-19T15:46:24;9.10;;;2.80;;
35558;SDS011;21661;50.794;-1.066;2023-01-19T15:48:51;10.75;;;3.33;;
35558;SDS011;21661;50.794;-1.066;2023-01-19T15:51:19;8.00;;;2.80;;
35558;SDS011;21661;50.794;-1.066;2023-01-19T15:53:46;10.18;;;3.40;;
35558;SDS011;21661;50.794;-1.066;2023-01-19T15:56:16;12.85;;;3.05;;
35558;SDS011;21661;50.794;-1.066;2023-01-19T16:01:11;12.88;;;3.38;;
35558;SDS011;21661;50.794;-1.066;2023-01-19T16:03:37;12.93;;;3.47;;
35558;SDS011;21661;50.794;-1.066;2023-01-19T16:06:03;11.68;;;3.78;;
35558;SDS011;21661;50.794;-1.066;2023-01-19T16:08:29;10.88;;;3.53;;
35558;SDS011;21661;50.794;-1.066;2023-01-19T16:10:55;9.93;;;3.72;;
35558;SDS011;21661;50.794;-1.066;2023-01-19T16:13:20;10.13;;;3.28;;